Flight Track Log - Related Links

Times and Time Zones

All times are in EDT time to prevent confusion due to time zone crossing. See the FIN666 flight status page for this flight to view local times or setup timezone preferences in your user account.

Time Position Orientation Groundspeed Altitude Reporting Facility
EDT Latitude Longitude Course Direction KTS MPH feet Rate Location/Type
Mon 08:22:00 AM 55.8668 13.1710 49° Northeast  Level Estimated
Mon 08:23:00 AM 55.9493 13.3441 50° Northeast  Level Estimated
Mon 08:24:00 AM 56.0316 13.5180 50° Northeast  Level Estimated
Mon 08:25:00 AM 56.1136 13.6926 50° Northeast  Level Estimated
Mon 08:26:00 AM 56.1953 13.8679 50° Northeast  Level Estimated
Mon 08:27:00 AM 56.2769 14.0440 50° Northeast  Level Estimated
Mon 08:28:00 AM 56.3581 14.2209 50° Northeast  Level Estimated
Mon 08:29:00 AM 56.4391 14.3985 50° Northeast  Level Estimated
Mon 08:30:00 AM 56.5199 14.5768 51° Northeast  Level Estimated
Mon 08:31:00 AM 56.6003 14.7559 51° Northeast  Level Estimated
Mon 08:32:00 AM 56.6806 14.9358 51° Northeast  Level Estimated
Mon 08:33:00 AM 56.7606 15.1165 51° Northeast  Level Estimated
Mon 08:34:00 AM 56.8403 15.2979 51° Northeast  Level Estimated
Mon 08:35:00 AM 56.9210 15.4830 51° Northeast  Level Estimated
Mon 08:36:00 AM 57.0014 15.6690 51° Northeast  Level Estimated
Mon 08:37:00 AM 57.0816 15.8557 52° Northeast  Level Estimated
Mon 08:38:00 AM 57.1615 16.0433 52° Northeast  Level Estimated
Mon 08:39:00 AM 57.2411 16.2316 52° Northeast  Level Estimated
Mon 08:40:00 AM 57.3204 16.4208 52° Northeast  Level Estimated
Mon 08:41:00 AM 57.3995 16.6108 52° Northeast  Level Estimated
Mon 08:42:00 AM 57.4782 16.8016 52° Northeast  Level Estimated
Mon 08:43:00 AM 57.5567 16.9933 53° Northeast  Level Estimated
Mon 08:44:00 AM 57.6349 17.1857 53° Northeast  Level Estimated
Mon 08:45:00 AM 57.7128 17.3790 53° Northeast  Level Estimated
Mon 08:46:00 AM 57.7904 17.5731 53° Northeast  Level Estimated
Mon 08:47:00 AM 57.8677 17.7681 53° Northeast  Level Estimated
Mon 08:48:00 AM 57.9446 17.9639 53° Northeast  Level Estimated
Mon 08:49:00 AM 58.0213 18.1605 54° Northeast  Level Estimated
Mon 08:50:00 AM 58.0977 18.3580 54° Northeast  Level Estimated
Mon 08:51:00 AM 58.1738 18.5563 54° Northeast  Level Estimated
Mon 08:52:00 AM 58.2496 18.7555 54° Northeast  Level Estimated
Mon 08:53:00 AM 58.3250 18.9555 54° Northeast  Level Estimated
Mon 08:54:00 AM 58.4002 19.1564 54° Northeast  Level Estimated
Mon 08:55:00 AM 58.4750 19.3582 55° Northeast  Level Estimated
Mon 08:56:00 AM 58.5495 19.5608 55° Northeast  Level Estimated
Mon 08:57:00 AM 58.6237 19.7642 55° Northeast  Level Estimated
Mon 08:58:00 AM 58.6976 19.9685 55° Northeast  Level Estimated
Mon 08:59:00 AM 58.7711 20.1737 55° Northeast  Level Estimated
Mon 09:00:00 AM 58.8443 20.3798 55° Northeast  Level Estimated
Mon 09:01:00 AM 58.9172 20.5867 56° Northeast  Level Estimated
Mon 09:02:00 AM 58.9910 20.7980 56° Northeast  Level Estimated
Mon 09:03:00 AM 59.0644 21.0101 56° Northeast  Level Estimated
Mon 09:04:00 AM 59.1374 21.2231 56° Northeast  Level Estimated
Mon 09:05:00 AM 59.2101 21.4370 56° Northeast  Level Estimated
Mon 09:06:00 AM 59.2824 21.6519 57° Northeast  Level Estimated
Mon 09:07:00 AM 59.3544 21.8676 57° Northeast  Level Estimated
Mon 09:08:00 AM 59.4261 22.0843 57° Northeast  Level Estimated
Mon 09:09:00 AM 59.4973 22.3019 57° Northeast  Level Estimated
Mon 09:10:00 AM 59.5682 22.5204 57° Northeast  Level Estimated
Mon 09:11:00 AM 59.6388 22.7398 57° Northeast  Level Estimated
Mon 09:12:00 AM 59.7090 22.9602 58° Northeast  Level Estimated
Mon 09:13:00 AM 59.7788 23.1815 58° Northeast  Level Estimated
Mon 09:14:00 AM 59.8482 23.4037 58° Northeast  Level Estimated
Mon 09:15:00 AM 59.9172 23.6268 58° Northeast  Level Estimated
Mon 09:16:00 AM 59.9859 23.8508 58° Northeast  Level Estimated
Mon 09:17:00 AM 60.0542 24.0758 59° Northeast  Level Estimated
Mon 09:18:00 AM 60.1221 24.3017 59° Northeast  Level Estimated
Mon 09:19:00 AM 60.1897 24.5286 59° Northeast  Level Estimated
Mon 09:20:00 AM 60.2568 24.7563 59° Northeast  Level Estimated
Mon 09:21:00 AM 60.3172 24.9633 59° Northeast  Level Estimated
Mon 09:22:00 AM 60.3172 24.9633 37° Northeast  Level Estimated
Mon 09:23:00 AM 60.3172 24.9633 37° Northeast  Level Estimated
Mon 09:24:00 AM 60.3172 24.9633 37° Northeast  Level Estimated
Mon 09:25:00 AM 60.3172 24.9633 37° Northeast  Level Estimated
Mon 09:26:00 AM 60.3172 24.9633 37° Northeast  Level Estimated
Mon 09:27:00 AM 60.3172 24.9633 37° Northeast  Level Estimated
Mon 09:28:00 AM 60.3172 24.9633 37° Northeast  Level Estimated
Mon 09:29:00 AM 60.3172 24.9633 37° Northeast  Level Estimated
Mon 09:30:00 AM 60.3172 24.9633 37° Northeast  Level Estimated
Mon 09:31:00 AM 60.3172 24.9633 37° Northeast  Level Estimated
Mon 09:32:00 AM 60.3172 24.9633 37° Northeast  Level Estimated
Mon 09:33:00 AM 60.3172 24.9633 37° Northeast  Level Estimated
Mon 09:34:00 AM 60.3172 24.9633 37° Northeast  Level Estimated
Mon 09:35:00 AM 60.3172 24.9633 37° Northeast  Level Estimated

Login

Don't have an account? Register now (free) for customized features, flight alerts, and more!